Time,TemperatureF,DewpointF,PressureIn,WindDirection,WindDirectionDegrees,WindSpeedMPH,WindSpeedGustMPH,Humidity,HourlyPrecipIn,Conditions,Clouds,dailyrainin,SoftwareType,DateUTC
2013-03-12 00:04:00,50.4,47.0,30.01,ESE,121,3.0,11.0,89,0.00,,,0.00,weatherlink.com 1.10,2013-03-12 04:04:00,
2013-03-12 00:19:00,50.6,47.0,30.00,South,184,7.0,16.0,88,0.00,,,0.00,weatherlink.com 1.10,2013-03-12 04:19:00,
2013-03-12 00:35:00,50.8,47.0,29.98,East,84,5.0,14.0,88,0.00,,,0.00,weatherlink.com 1.10,2013-03-12 04:35:00,
2013-03-12 00:50:00,50.6,47.0,29.97,ENE,61,3.0,14.0,88,0.00,,,0.00,weatherlink.com 1.10,2013-03-12 04:50:00,
2013-03-12 01:05:00,50.7,47.0,29.95,East,88,7.0,17.0,88,0.00,,,0.00,weatherlink.com 1.10,2013-03-12 05:05:00,
2013-03-12 01:20:00,50.9,47.0,29.97,SE,137,7.0,16.0,87,0.00,,,0.00,weatherlink.com 1.10,2013-03-12 05:20:00,
2013-03-12 01:35:00,50.9,48.0,29.96,South,178,3.0,13.0,88,0.00,,,0.00,weatherlink.com 1.10,2013-03-12 05:35:00,
2013-03-12 01:50:00,50.8,47.0,29.96,South,177,1.0,10.0,88,0.00,,,0.00,weatherlink.com 1.10,2013-03-12 05:50:00,
2013-03-12 02:05:00,50.9,47.0,29.96,SSW,202,6.0,11.0,87,0.00,,,0.00,weatherlink.com 1.10,2013-03-12 06:05:00,
2013-03-12 02:20:00,51.1,47.0,29.95,ESE,109,4.0,15.0,86,0.00,,,0.00,weatherlink.com 1.10,2013-03-12 06:20:00,
2013-03-12 02:35:00,51.0,47.0,29.94,ESE,117,1.0,9.0,86,0.00,,,0.00,weatherlink.com 1.10,2013-03-12 06:35:00,
2013-03-12 02:50:00,51.0,47.0,29.93,East,82,1.0,7.0,86,0.00,,,0.00,weatherlink.com 1.10,2013-03-12 06:50:00,
2013-03-12 03:05:00,51.2,47.0,29.93,ESE,109,5.0,9.0,86,0.00,,,0.00,weatherlink.com 1.10,2013-03-12 07:05:00,
2013-03-12 03:20:00,51.0,48.0,29.93,ESE,105,4.0,15.0,88,0.02,,,0.02,weatherlink.com 1.10,2013-03-12 07:20:00,
2013-03-12 03:35:00,50.5,47.0,29.92,South,184,3.0,16.0,89,0.02,,,0.02,weatherlink.com 1.10,2013-03-12 07:35:00,
2013-03-12 03:50:00,50.3,48.0,29.93,ESE,115,7.0,13.0,90,0.03,,,0.03,weatherlink.com 1.10,2013-03-12 07:50:00,
2013-03-12 04:05:00,50.1,48.0,29.92,NE,51,2.0,9.0,91,0.04,,,0.04,weatherlink.com 1.10,2013-03-12 08:05:00,
2013-03-12 04:20:00,50.1,48.0,29.91,East,86,2.0,13.0,91,0.02,,,0.04,weatherlink.com 1.10,2013-03-12 08:20:00,
2013-03-12 04:35:00,50.1,48.0,29.91,South,171,3.0,15.0,91,0.02,,,0.04,weatherlink.com 1.10,2013-03-12 08:35:00,
2013-03-12 04:50:00,50.0,48.0,29.90,SE,124,2.0,10.0,92,0.01,,,0.04,weatherlink.com 1.10,2013-03-12 08:50:00,
2013-03-12 05:06:00,50.0,48.0,29.89,ESE,120,4.0,11.0,93,0.01,,,0.05,weatherlink.com 1.10,2013-03-12 09:06:00,
2013-03-12 05:20:00,50.0,48.0,29.89,SE,130,4.0,10.0,93,0.02,,,0.06,weatherlink.com 1.10,2013-03-12 09:20:00,
2013-03-12 05:35:00,50.1,48.0,29.88,ESE,103,3.0,9.0,93,0.03,,,0.07,weatherlink.com 1.10,2013-03-12 09:35:00,
2013-03-12 05:50:00,50.1,49.0,29.88,SE,144,5.0,11.0,94,0.04,,,0.08,weatherlink.com 1.10,2013-03-12 09:50:00,
2013-03-12 06:05:00,50.2,49.0,29.87,SSE,151,5.0,16.0,94,0.06,,,0.11,weatherlink.com 1.10,2013-03-12 10:05:00,
2013-03-12 06:20:00,50.3,49.0,29.87,SE,136,6.0,15.0,94,0.05,,,0.11,weatherlink.com 1.10,2013-03-12 10:20:00,
2013-03-12 06:35:00,50.6,49.0,29.87,East,101,7.0,14.0,94,0.05,,,0.12,weatherlink.com 1.10,2013-03-12 10:35:00,
2013-03-12 06:50:00,50.8,49.0,29.87,East,88,6.0,15.0,94,0.05,,,0.13,weatherlink.com 1.10,2013-03-12 10:50:00,
2013-03-12 07:05:00,51.0,49.0,29.87,ESE,103,9.0,11.0,94,0.04,,,0.01,weatherlink.com 1.10,2013-03-12 11:05:00,
2013-03-12 07:20:00,51.1,50.0,29.85,SE,138,1.0,13.0,94,0.05,,,0.02,weatherlink.com 1.10,2013-03-12 11:20:00,
2013-03-12 07:35:00,51.2,50.0,29.85,ESE,123,4.0,12.0,94,0.04,,,0.02,weatherlink.com 1.10,2013-03-12 11:35:00,
2013-03-12 07:50:00,51.5,50.0,29.85,SSE,156,2.0,13.0,94,0.04,,,0.03,weatherlink.com 1.10,2013-03-12 11:50:00,
2013-03-12 08:05:00,51.6,50.0,29.84,SE,144,3.0,13.0,94,0.03,,,0.04,weatherlink.com 1.10,2013-03-12 12:05:00,
2013-03-12 08:20:00,51.7,50.0,29.84,SSW,197,3.0,11.0,94,0.05,,,0.07,weatherlink.com 1.10,2013-03-12 12:20:00,
2013-03-12 08:35:00,51.6,50.0,29.84,SSE,158,7.0,15.0,94,0.10,,,0.12,weatherlink.com 1.10,2013-03-12 12:35:00,
2013-03-12 08:50:00,51.7,50.0,29.84,SW,225,4.0,14.0,94,0.10,,,0.13,weatherlink.com 1.10,2013-03-12 12:50:00,
2013-03-12 09:05:00,51.8,50.0,29.84,SSE,161,2.0,12.0,94,0.10,,,0.14,weatherlink.com 1.10,2013-03-12 13:05:00,
2013-03-12 09:20:00,51.9,50.0,29.83,South,181,1.0,12.0,94,0.09,,,0.16,weatherlink.com 1.10,2013-03-12 13:20:00,
2013-03-12 09:35:00,52.0,51.0,29.83,SE,131,1.0,12.0,95,0.06,,,0.18,weatherlink.com 1.10,2013-03-12 13:35:00,
2013-03-12 09:50:00,52.0,51.0,29.82,ESE,117,8.0,11.0,95,0.06,,,0.19,weatherlink.com 1.10,2013-03-12 13:50:00,
2013-03-12 10:05:00,52.2,51.0,29.82,SE,132,3.0,9.0,95,0.06,,,0.20,weatherlink.com 1.10,2013-03-12 14:05:00,
2013-03-12 10:20:00,52.4,51.0,29.81,ESE,114,7.0,11.0,95,0.07,,,0.23,weatherlink.com 1.10,2013-03-12 14:20:00,
2013-03-12 10:35:00,52.6,51.0,29.81,ENE,61,3.0,9.0,95,0.09,,,0.27,weatherlink.com 1.10,2013-03-12 14:35:00,
2013-03-12 10:51:00,52.7,51.0,29.80,SSE,147,2.0,14.0,95,0.10,,,0.29,weatherlink.com 1.10,2013-03-12 14:51:00,
2013-03-12 11:06:00,52.8,52.0,29.79,South,183,5.0,14.0,95,0.12,,,0.32,weatherlink.com 1.10,2013-03-12 15:06:00,
2013-03-12 11:21:00,52.9,52.0,29.77,SSE,166,3.0,8.0,95,0.15,,,0.39,weatherlink.com 1.10,2013-03-12 15:21:00,
2013-03-12 11:36:00,52.9,52.0,29.76,SSE,165,1.0,9.0,95,0.17,,,0.44,weatherlink.com 1.10,2013-03-12 15:36:00,
2013-03-12 12:06:00,53.1,52.0,29.75,East,93,7.0,9.0,95,0.24,,,0.57,weatherlink.com 1.10,2013-03-12 16:06:00,
2013-03-12 13:36:00,54.4,53.0,29.69,SSE,165,2.0,6.0,96,0.19,,,0.85,weatherlink.com 1.10,2013-03-12 17:36:00,
2013-03-12 13:51:00,54.6,54.0,29.68,SSW,193,4.0,7.0,96,0.27,,,0.94,weatherlink.com 1.10,2013-03-12 17:51:00,
2013-03-12 14:06:00,54.7,54.0,29.68,SW,217,1.0,9.0,96,0.33,,,1.02,weatherlink.com 1.10,2013-03-12 18:06:00,
2013-03-12 14:21:00,54.9,54.0,29.68,West,259,3.0,4.0,96,0.35,,,1.10,weatherlink.com 1.10,2013-03-12 18:21:00,
2013-03-12 14:36:00,54.9,54.0,29.68,West,260,4.0,5.0,96,0.29,,,1.14,weatherlink.com 1.10,2013-03-12 18:36:00,
2013-03-12 14:51:00,55.0,54.0,29.66,West,270,1.0,7.0,96,0.21,,,1.16,weatherlink.com 1.10,2013-03-12 18:51:00,
2013-03-12 15:06:00,55.5,55.0,29.66,West,273,0.0,2.0,97,0.13,,,1.16,weatherlink.com 1.10,2013-03-12 19:06:00,
2013-03-12 15:21:00,56.2,55.0,29.66,West,267,3.0,5.0,97,0.05,,,1.16,weatherlink.com 1.10,2013-03-12 19:21:00,
2013-03-12 15:36:00,55.7,55.0,29.65,WSW,248,4.0,8.0,96,0.02,,,1.16,weatherlink.com 1.10,2013-03-12 19:36:00,
2013-03-12 15:51:00,55.9,55.0,29.65,WSW,253,4.0,7.0,96,0.00,,,1.16,weatherlink.com 1.10,2013-03-12 19:51:00,
2013-03-12 16:06:00,54.4,53.0,29.66,West,277,3.0,13.0,95,0.02,,,1.18,weatherlink.com 1.10,2013-03-12 20:06:00,
2013-03-12 16:21:00,53.3,51.0,29.67,WSW,247,4.0,9.0,93,0.02,,,1.18,weatherlink.com 1.10,2013-03-12 20:21:00,
2013-03-12 16:36:00,53.4,51.0,29.67,WSW,254,3.0,9.0,92,0.02,,,1.18,weatherlink.com 1.10,2013-03-12 20:36:00,
2013-03-12 16:51:00,53.5,50.0,29.67,WSW,258,6.0,10.0,89,0.02,,,1.18,weatherlink.com 1.10,2013-03-12 20:51:00,
2013-03-12 17:06:00,53.3,50.0,29.68,West,273,4.0,13.0,87,0.00,,,1.18,weatherlink.com 1.10,2013-03-12 21:06:00,
2013-03-12 17:21:00,52.8,49.0,29.69,West,267,2.0,11.0,86,0.00,,,1.18,weatherlink.com 1.10,2013-03-12 21:21:00,
2013-03-12 17:51:00,51.1,46.0,29.72,WNW,286,8.0,16.0,82,0.00,,,1.18,weatherlink.com 1.10,2013-03-12 21:51:00,
2013-03-12 18:06:00,50.3,45.0,29.73,West,268,2.0,14.0,81,0.00,,,1.18,weatherlink.com 1.10,2013-03-12 22:06:00,
2013-03-12 18:22:00,49.9,45.0,29.74,West,277,3.0,9.0,82,0.00,,,1.18,weatherlink.com 1.10,2013-03-12 22:22:00,
2013-03-12 18:37:00,49.5,45.0,29.75,WNW,298,6.0,7.0,83,0.00,,,1.18,weatherlink.com 1.10,2013-03-12 22:37:00,
2013-03-12 18:52:00,49.2,44.0,29.76,NW,316,3.0,9.0,83,0.00,,,1.18,weatherlink.com 1.10,2013-03-12 22:52:00,
2013-03-12 19:07:00,49.0,44.0,29.77,West,279,3.0,10.0,82,0.00,,,1.18,weatherlink.com 1.10,2013-03-12 23:07:00,
2013-03-12 19:22:00,48.5,43.0,29.77,West,273,4.0,9.0,80,0.00,,,1.18,weatherlink.com 1.10,2013-03-12 23:22:00,
2013-03-12 19:37:00,47.8,42.0,29.78,WNW,282,6.0,6.0,80,0.00,,,1.18,weatherlink.com 1.10,2013-03-12 23:37:00,
2013-03-12 19:52:00,47.3,41.0,29.79,West,280,2.0,10.0,80,0.00,,,1.18,weatherlink.com 1.10,2013-03-12 23:52:00,
2013-03-12 20:07:00,46.8,41.0,29.79,WNW,283,3.0,8.0,79,0.00,,,1.18,weatherlink.com 1.10,2013-03-13 00:07:00,
2013-03-12 20:22:00,46.4,41.0,29.80,WSW,255,2.0,9.0,80,0.00,,,1.18,weatherlink.com 1.10,2013-03-13 00:22:00,
2013-03-12 20:37:00,46.1,40.0,29.81,WNW,295,8.0,11.0,80,0.00,,,1.18,weatherlink.com 1.10,2013-03-13 00:37:00,
2013-03-12 20:52:00,45.7,40.0,29.82,NNW,332,7.0,8.0,79,0.00,,,1.18,weatherlink.com 1.10,2013-03-13 00:52:00,
2013-03-12 21:07:00,45.3,39.0,29.82,NW,316,4.0,11.0,79,0.00,,,1.18,weatherlink.com 1.10,2013-03-13 01:07:00,
2013-03-12 21:22:00,45.0,39.0,29.82,NNW,331,0.0,8.0,79,0.00,,,1.18,weatherlink.com 1.10,2013-03-13 01:22:00,
2013-03-12 21:37:00,44.6,39.0,29.82,NNW,344,0.0,6.0,80,0.00,,,1.18,weatherlink.com 1.10,2013-03-13 01:37:00,
2013-03-12 21:52:00,44.4,38.0,29.83,WNW,283,1.0,8.0,79,0.00,,,1.18,weatherlink.com 1.10,2013-03-13 01:52:00,
2013-03-12 22:07:00,44.2,38.0,29.83,NNW,333,0.0,5.0,79,0.00,,,1.18,weatherlink.com 1.10,2013-03-13 02:07:00,
2013-03-12 22:22:00,43.8,38.0,29.83,WNW,299,1.0,4.0,80,0.00,,,1.18,weatherlink.com 1.10,2013-03-13 02:22:00,
2013-03-12 22:37:00,43.4,38.0,29.83,NW,319,0.0,3.0,80,0.00,,,1.18,weatherlink.com 1.10,2013-03-13 02:37:00,
2013-03-12 22:52:00,43.1,37.0,29.84,NW,306,2.0,4.0,80,0.00,,,1.18,weatherlink.com 1.10,2013-03-13 02:52:00,
2013-03-12 23:07:00,42.7,37.0,29.84,WSW,251,2.0,3.0,81,0.00,,,1.18,weatherlink.com 1.10,2013-03-13 03:07:00,
2013-03-12 23:22:00,42.0,37.0,29.84,West,267,0.0,3.0,81,0.00,,,1.18,weatherlink.com 1.10,2013-03-13 03:22:00,
2013-03-12 23:37:00,41.1,36.0,29.84,WNW,282,0.0,2.0,82,0.00,,,1.18,weatherlink.com 1.10,2013-03-13 03:37:00,
2013-03-12 23:52:00,40.6,36.0,29.84,NW,322,0.0,3.0,83,0.00,,,1.18,weatherlink.com 1.10,2013-03-13 03:52:00,